Time;durP1;ratioP1;P1;durP2;ratioP2;P2;SDS_P1;SDS_P2;PMS_P1;PMS_P2;Temp;Humidity;BMP_temperature;BMP_pressure;BME280_temperature;BME280_humidity;BME280_pressure;Samples;Min_cycle;Max_cycle;Signal;HPM_P1;HPM_P2
2023/12/22 00:01:23;;;;;;;0.20;0.20;;;;;;;3.63;65.72;95346.41;5036530;28;20063;-69
2023/12/22 00:03:51;;;;;;;0.47;0.47;;;;;;;3.63;65.51;95363.00;5039220;28;20045;-69
2023/12/22 00:06:18;;;;;;;0.30;0.30;;;;;;;3.62;65.18;95352.69;5030872;28;20507;-69
2023/12/22 00:08:47;;;;;;;0.40;0.40;;;;;;;3.66;65.12;95354.69;5039689;28;20449;-70
2023/12/22 00:11:15;;;;;;;0.30;0.30;;;;;;;3.63;64.93;95363.00;5039302;28;20049;-68
2023/12/22 00:13:43;;;;;;;0.30;0.30;;;;;;;3.73;64.51;95362.59;5042042;28;20049;-69
2023/12/22 00:16:12;;;;;;;0.32;0.32;;;;;;;3.64;65.18;95367.28;5038024;28;20501;-71
2023/12/22 00:18:39;;;;;;;0.30;0.30;;;;;;;3.64;65.23;95383.09;5039368;28;20095;-68
2023/12/22 00:21:10;;;;;;;0.40;0.40;;;;;;;3.62;65.82;95379.88;5035645;28;20496;-68
2023/12/22 00:23:38;;;;;;;0.40;0.40;;;;;;;3.67;65.86;95368.69;5039627;28;20040;-70
2023/12/22 00:26:07;;;;;;;0.38;0.38;;;;;;;3.60;65.82;95383.72;5043011;28;20160;-69
2023/12/22 00:28:34;;;;;;;0.50;0.50;;;;;;;3.66;65.16;95373.16;5037276;28;20048;-70
2023/12/22 00:31:02;;;;;;;0.45;0.45;;;;;;;3.64;64.92;95379.66;5033403;28;20033;-70
2023/12/22 00:33:30;;;;;;;0.45;0.40;;;;;;;3.57;65.24;95384.94;5041667;28;20045;-70
2023/12/22 00:35:59;;;;;;;0.45;0.45;;;;;;;3.60;64.61;95370.53;5031593;28;20051;-69
2023/12/22 00:38:26;;;;;;;0.55;0.55;;;;;;;3.61;64.04;95386.16;5033378;28;20140;-69
2023/12/22 00:40:54;;;;;;;0.52;0.52;;;;;;;3.66;63.23;95382.91;5032799;28;20037;-69
2023/12/22 00:43:23;;;;;;;0.30;0.30;;;;;;;3.66;62.59;95372.34;5029579;28;20052;-69
2023/12/22 00:45:50;;;;;;;0.43;0.43;;;;;;;3.70;63.10;95394.66;5034802;28;20121;-69
2023/12/22 00:48:18;;;;;;;0.47;0.47;;;;;;;3.75;62.08;95384.28;5035584;28;20530;-69
2023/12/22 00:50:46;;;;;;;0.43;0.40;;;;;;;3.67;62.23;95371.34;5039134;28;20040;-69
2023/12/22 00:53:14;;;;;;;0.40;0.40;;;;;;;3.66;62.77;95377.63;5031664;28;20382;-69
2023/12/22 00:55:41;;;;;;;0.43;0.43;;;;;;;3.67;62.12;95373.97;5041449;28;20037;-70
2023/12/22 00:58:09;;;;;;;0.43;0.43;;;;;;;3.72;62.41;95381.28;5037829;28;20095;-69
2023/12/22 01:00:37;;;;;;;0.50;0.50;;;;;;;3.63;62.74;95383.34;5037907;28;20447;-69
2023/12/22 01:03:05;;;;;;;0.25;0.25;;;;;;;3.62;62.42;95381.72;5038604;28;20045;-69
2023/12/22 01:05:33;;;;;;;0.50;0.50;;;;;;;3.68;62.49;95378.22;5033052;28;20041;-69
2023/12/22 01:08:00;;;;;;;0.50;0.50;;;;;;;3.67;62.47;95390.59;5040698;28;20530;-69
2023/12/22 01:10:28;;;;;;;0.40;0.40;;;;;;;3.64;62.81;95392.84;5039451;28;20053;-70
2023/12/22 01:12:55;;;;;;;0.45;0.45;;;;;;;3.57;62.86;95399.97;5045224;28;20086;-69
2023/12/22 01:15:22;;;;;;;0.40;0.40;;;;;;;3.57;63.10;95406.03;5036780;28;20404;-69
2023/12/22 01:17:51;;;;;;;0.50;0.50;;;;;;;3.59;63.11;95398.75;5039411;28;20138;-69
2023/12/22 01:20:19;;;;;;;0.55;0.55;;;;;;;3.56;63.41;95390.41;5030584;28;20128;-69
2023/12/22 01:22:47;;;;;;;0.65;0.65;;;;;;;3.52;63.19;95400.59;5031690;28;20046;-69
2023/12/22 01:25:15;;;;;;;0.40;0.40;;;;;;;3.54;63.59;95408.28;5042505;28;20495;-69
2023/12/22 01:27:42;;;;;;;0.38;0.35;;;;;;;3.61;63.46;95411.72;5044712;28;20044;-70
2023/12/22 01:30:10;;;;;;;0.65;0.65;;;;;;;3.60;63.60;95413.56;5035002;28;20038;-71
2023/12/22 01:32:38;;;;;;;0.47;0.47;;;;;;;3.54;64.01;95413.53;5039106;28;20045;-70
2023/12/22 01:35:09;;;;;;;0.50;0.50;;;;;;;3.57;63.81;95406.03;5035068;28;20408;-69
2023/12/22 01:37:38;;;;;;;0.43;0.32;;;;;;;3.59;64.28;95411.13;5038788;28;20051;-69
2023/12/22 01:40:07;;;;;;;0.30;0.30;;;;;;;3.62;63.50;95405.44;5035129;28;20519;-69
2023/12/22 01:42:34;;;;;;;0.50;0.50;;;;;;;3.66;63.46;95417.19;5037827;28;20079;-70
2023/12/22 01:45:02;;;;;;;0.68;0.65;;;;;;;3.68;62.82;95400.16;5038057;28;20052;-69
2023/12/22 01:47:30;;;;;;;0.28;0.28;;;;;;;3.67;63.23;95405.63;5039249;28;20051;-69
2023/12/22 01:49:57;;;;;;;0.43;0.40;;;;;;;3.63;63.89;95401.78;5034669;28;20071;-69
2023/12/22 01:52:27;;;;;;;0.43;0.43;;;;;;;3.72;63.53;95411.09;5038061;28;20045;-70
2023/12/22 01:54:55;;;;;;;0.43;0.43;;;;;;;3.67;63.14;95395.88;5045708;28;20129;-69
2023/12/22 01:57:23;;;;;;;0.40;0.40;;;;;;;3.67;63.31;95400.34;5028730;28;20057;-71
2023/12/22 01:59:51;;;;;;;0.40;0.40;;;;;;;3.70;63.41;95405.22;5038523;28;20052;-70
2023/12/22 02:02:18;;;;;;;0.20;0.20;;;;;;;3.67;63.42;95401.16;5040295;28;20052;-70
2023/12/22 02:04:47;;;;;;;0.45;0.45;;;;;;;3.63;63.86;95407.84;5036301;28;20048;-69
2023/12/22 02:07:15;;;;;;;0.32;0.32;;;;;;;3.62;63.75;95410.72;5039768;28;20049;-69
2023/12/22 02:09:44;;;;;;;0.55;0.55;;;;;;;3.61;64.10;95407.25;5044935;28;20497;-69
2023/12/22 02:12:11;;;;;;;0.20;0.20;;;;;;;3.70;63.83;95410.50;5043663;28;20128;-70
2023/12/22 02:14:39;;;;;;;0.30;0.30;;;;;;;3.70;64.25;95415.75;5044218;28;20045;-70
2023/12/22 02:17:15;;;;;;;0.50;0.50;;;;;;;3.72;64.36;95397.09;5036485;28;20206;-70
2023/12/22 02:19:44;;;;;;;0.43;0.43;;;;;;;3.72;64.21;95387.38;5038508;28;20041;-69
2023/12/22 02:22:13;;;;;;;0.20;0.20;;;;;;;3.73;64.66;95394.25;5042592;28;20044;-69
2023/12/22 02:24:42;;;;;;;0.43;0.43;;;;;;;3.75;64.82;95400.13;5040301;28;20045;-68
2023/12/22 02:27:16;;;;;;;0.35;0.35;;;;;;;3.66;65.10;95385.53;5039153;28;20125;-69
2023/12/22 02:29:58;;;;;;;0.10;0.10;;;;;;;3.66;65.21;95401.34;5039427;28;20041;-69
2023/12/22 02:32:28;;;;;;;0.20;0.20;;;;;;;3.68;65.04;95394.88;5031475;28;20052;-70
2023/12/22 02:34:57;;;;;;;0.30;0.30;;;;;;;3.64;65.64;95396.28;5036965;28;20049;-71
2023/12/22 02:37:25;;;;;;;0.50;0.40;;;;;;;3.69;65.32;95395.69;5031420;28;20045;-69
2023/12/22 02:39:54;;;;;;;0.35;0.35;;;;;;;3.77;65.17;95398.09;5040688;28;20069;-69
2023/12/22 02:42:29;;;;;;;0.30;0.30;;;;;;;3.69;65.51;95390.41;5050407;28;20043;-69
2023/12/22 02:44:58;;;;;;;0.40;0.40;;;;;;;3.65;65.89;95403.19;5037102;28;20081;-70
2023/12/22 02:47:27;;;;;;;0.30;0.30;;;;;;;3.69;66.16;95401.78;5029458;28;20133;-69
2023/12/22 02:49:55;;;;;;;0.40;0.40;;;;;;;3.67;66.47;95390.59;5045769;28;20555;-69
2023/12/22 02:52:22;;;;;;;0.75;0.75;;;;;;;3.75;66.84;95397.47;5032547;28;20047;-69
2023/12/22 02:54:50;;;;;;;0.45;0.45;;;;;;;3.71;67.00;95385.75;5032259;28;20451;-72
2023/12/22 02:57:19;;;;;;;0.43;0.43;;;;;;;3.60;67.37;95394.28;5037697;28;20120;-68
2023/12/22 02:59:46;;;;;;;0.73;0.73;;;;;;;3.57;67.68;95379.69;5034641;28;20048;-69
2023/12/22 03:02:14;;;;;;;0.20;0.20;;;;;;;3.60;67.90;95381.91;5036325;28;20041;-69
2023/12/22 03:04:41;;;;;;;0.30;0.30;;;;;;;3.51;68.84;95379.69;5044307;28;20041;-69
2023/12/22 03:07:09;;;;;;;0.25;0.25;;;;;;;3.44;69.20;95378.88;5040154;28;20056;-69
2023/12/22 03:09:37;;;;;;;0.40;0.40;;;;;;;3.36;69.71;95369.38;5037857;28;20045;-69
2023/12/22 03:12:06;;;;;;;0.32;0.32;;;;;;;3.39;70.02;95366.31;5035821;28;20107;-69
2023/12/22 03:14:35;;;;;;;0.30;0.30;;;;;;;3.35;70.23;95359.03;5042484;28;20041;-69
2023/12/22 03:17:04;;;;;;;0.30;0.30;;;;;;;3.36;70.33;95364.09;5030639;28;20052;-70
2023/12/22 03:19:32;;;;;;;0.30;0.30;;;;;;;3.30;70.77;95364.91;5033615;28;20408;-69
2023/12/22 03:22:00;;;;;;;0.40;0.40;;;;;;;3.24;71.23;95366.53;5040787;28;20623;-69
2023/12/22 03:24:28;;;;;;;0.30;0.30;;;;;;;3.25;71.49;95364.72;5039815;28;20049;-69
2023/12/22 03:26:57;;;;;;;0.40;0.40;;;;;;;3.19;72.19;95365.53;5040576;28;20045;-69
2023/12/22 03:29:24;;;;;;;0.32;0.32;;;;;;;3.18;72.72;95364.72;5037803;28;20051;-69
2023/12/22 03:31:53;;;;;;;0.38;0.38;;;;;;;3.16;73.20;95365.94;5041279;28;20045;-69
2023/12/22 03:34:21;;;;;;;0.35;0.35;;;;;;;3.14;73.62;95366.13;5041929;28;20090;-69
2023/12/22 03:36:49;;;;;;;0.30;0.30;;;;;;;3.15;73.34;95359.03;5043640;28;20442;-69
2023/12/22 03:39:17;;;;;;;0.43;0.43;;;;;;;3.27;71.98;95342.41;5035925;28;20056;-69
2023/12/22 03:41:44;;;;;;;0.40;0.40;;;;;;;3.42;70.24;95349.28;5037916;28;20033;-69
2023/12/22 03:44:12;;;;;;;0.20;0.20;;;;;;;3.64;68.61;95366.47;5044032;28;20073;-69
2023/12/22 03:46:39;;;;;;;0.65;0.65;;;;;;;3.76;67.43;95364.81;5043924;28;20041;-69
2023/12/22 03:49:08;;;;;;;0.20;0.20;;;;;;;3.87;65.55;95358.09;5037200;28;20148;-69
2023/12/22 03:51:37;;;;;;;0.45;0.45;;;;;;;3.92;64.84;95376.75;5033148;28;20033;-69
2023/12/22 03:54:05;;;;;;;0.43;0.43;;;;;;;4.01;63.16;95407.97;5031705;28;20076;-69
2023/12/22 03:56:33;;;;;;;0.45;0.40;;;;;;;4.10;62.64;95386.63;5042012;28;20047;-69
2023/12/22 03:59:00;;;;;;;0.30;0.30;;;;;;;4.14;63.34;95386.00;5034258;28;20543;-70
2023/12/22 04:01:28;;;;;;;0.30;0.30;;;;;;;4.06;65.15;95389.66;5035550;28;20037;-69
2023/12/22 04:03:55;;;;;;;0.20;0.20;;;;;;;4.06;67.59;95415.25;5035569;28;20137;-69
2023/12/22 04:06:24;;;;;;;0.50;0.50;;;;;;;3.91;69.93;95412.88;5034167;28;20068;-69
2023/12/22 04:08:52;;;;;;;0.20;0.20;;;;;;;3.59;72.46;95401.38;5044368;28;20044;-70
2023/12/22 04:11:19;;;;;;;0.30;0.30;;;;;;;3.51;72.82;95377.88;5031708;28;20050;-69
2023/12/22 04:13:47;;;;;;;0.43;0.43;;;;;;;3.36;73.82;95376.47;5034399;28;20587;-69
2023/12/22 04:16:15;;;;;;;0.40;0.40;;;;;;;3.37;73.92;95380.72;5031866;28;20507;-69
2023/12/22 04:18:43;;;;;;;0.43;0.43;;;;;;;3.31;73.47;95374.44;5039224;28;20069;-68
2023/12/22 04:21:10;;;;;;;0.20;0.20;;;;;;;3.28;73.35;95372.22;5032507;28;20050;-69
2023/12/22 04:23:39;;;;;;;0.20;0.20;;;;;;;3.20;73.64;95370.59;5040418;28;20052;-68
2023/12/22 04:26:07;;;;;;;0.30;0.30;;;;;;;3.26;73.00;95369.78;5039648;28;20041;-69
2023/12/22 04:28:34;;;;;;;0.38;0.38;;;;;;;3.43;70.77;95378.06;5038617;28;20094;-69
2023/12/22 04:31:02;;;;;;;0.45;0.45;;;;;;;3.36;71.09;95389.63;5034825;28;20084;-70
2023/12/22 04:33:30;;;;;;;0.40;0.40;;;;;;;3.43;70.80;95411.53;5027623;28;20033;-69
2023/12/22 04:35:57;;;;;;;0.30;0.30;;;;;;;3.38;72.73;95442.97;5032195;28;20037;-69
2023/12/22 04:38:25;;;;;;;0.40;0.40;;;;;;;3.17;74.92;95431.63;5039058;28;20051;-69
2023/12/22 04:40:54;;;;;;;0.30;0.30;;;;;;;2.98;77.41;95428.97;5044341;28;20056;-71
2023/12/22 04:43:21;;;;;;;0.60;0.60;;;;;;;2.95;78.28;95446.81;5037712;28;20110;-70
2023/12/22 04:45:49;;;;;;;0.38;0.38;;;;;;;2.77;79.63;95438.66;5038535;28;20465;-70
2023/12/22 04:48:17;;;;;;;0.30;0.30;;;;;;;2.60;81.35;95439.25;5041075;28;20484;-70
2023/12/22 04:50:44;;;;;;;0.47;0.47;;;;;;;2.62;81.69;95434.56;5038912;28;20033;-69
2023/12/22 04:53:12;;;;;;;0.38;0.38;;;;;;;2.52;82.32;95440.22;5040132;28;20064;-69
2023/12/22 04:55:40;;;;;;;0.40;0.40;;;;;;;2.50;82.68;95439.59;5034048;28;20048;-70
2023/12/22 04:58:09;;;;;;;0.30;0.30;;;;;;;2.51;82.55;95447.28;5044544;28;20128;-70
2023/12/22 05:00:36;;;;;;;0.40;0.40;;;;;;;2.48;82.54;95449.53;5041167;28;20041;-69
2023/12/22 05:03:04;;;;;;;0.30;0.30;;;;;;;2.55;81.77;95458.25;5043526;28;20042;-70
2023/12/22 05:05:32;;;;;;;0.50;0.50;;;;;;;2.69;81.52;95472.28;5043591;28;20045;-69
2023/12/22 05:07:59;;;;;;;0.30;0.30;;;;;;;2.66;81.57;95491.91;5040363;28;20497;-69
2023/12/22 05:10:27;;;;;;;0.40;0.40;;;;;;;2.72;81.57;95503.47;5052819;22;20053;-71
2023/12/22 05:12:55;;;;;;;0.28;0.20;;;;;;;2.61;82.28;95504.84;5025386;28;20045;-74
2023/12/22 05:15:24;;;;;;;0.40;0.40;;;;;;;2.49;83.31;95501.97;5030039;28;20050;-73
2023/12/22 05:17:52;;;;;;;0.45;0.45;;;;;;;2.41;84.08;95494.25;5029022;28;20057;-73
2023/12/22 05:20:20;;;;;;;0.30;0.30;;;;;;;2.32;84.69;95487.53;5034137;28;20064;-74
2023/12/22 05:22:48;;;;;;;0.32;0.32;;;;;;;2.26;83.69;95488.31;5026607;28;20037;-73
2023/12/22 05:25:15;;;;;;;0.32;0.32;;;;;;;2.17;84.52;95476.34;5032402;28;20458;-73
2023/12/22 05:27:43;;;;;;;0.30;0.30;;;;;;;2.12;84.40;95486.63;5024258;28;20037;-73
2023/12/22 05:30:12;;;;;;;0.30;0.30;;;;;;;2.22;83.26;95487.88;5033656;28;20494;-74
2023/12/22 05:32:41;;;;;;;0.20;0.20;;;;;;;2.28;82.54;95488.94;5027351;28;20056;-73
2023/12/22 05:35:10;;;;;;;0.20;0.20;;;;;;;2.32;82.81;95499.88;5031313;28;20079;-74
2023/12/22 05:37:38;;;;;;;0.20;0.20;;;;;;;2.33;82.25;95504.94;5032422;28;20055;-74
2023/12/22 05:40:07;;;;;;;0.35;0.35;;;;;;;2.26;82.83;95498.84;5034536;28;20049;-73
2023/12/22 05:42:34;;;;;;;0.38;0.38;;;;;;;2.36;82.98;95509.81;5027067;28;20116;-74
2023/12/22 05:45:02;;;;;;;0.25;0.25;;;;;;;2.21;83.38;95504.66;5028757;28;20052;-72
2023/12/22 05:47:30;;;;;;;0.38;0.38;;;;;;;2.20;83.62;95513.56;5026835;28;20041;-73
2023/12/22 05:49:59;;;;;;;0.20;0.20;;;;;;;2.12;84.14;95521.63;5030248;28;20045;-73
2023/12/22 05:52:27;;;;;;;0.20;0.20;;;;;;;2.11;84.23;95506.03;5029946;28;20038;-72
2023/12/22 05:54:55;;;;;;;0.35;0.35;;;;;;;2.06;84.56;95482.94;5029311;28;20073;-72
2023/12/22 05:57:22;;;;;;;0.30;0.30;;;;;;;2.08;84.70;95486.19;5022942;28;20125;-71
2023/12/22 05:59:50;;;;;;;0.20;0.20;;;;;;;2.00;85.34;95494.22;5033468;28;20076;-74
2023/12/22 06:02:17;;;;;;;0.45;0.45;;;;;;;2.11;84.14;95483.16;5033739;28;20048;-74
2023/12/22 06:04:45;;;;;;;0.45;0.45;;;;;;;2.01;84.71;95495.84;5031793;28;20038;-73
2023/12/22 06:07:14;;;;;;;0.30;0.30;;;;;;;2.10;84.78;95486.00;5032489;28;20103;-73
2023/12/22 06:09:42;;;;;;;0.30;0.30;;;;;;;2.07;85.20;95486.41;5024659;28;20132;-72
2023/12/22 06:12:10;;;;;;;0.30;0.30;;;;;;;2.03;85.29;95479.88;5027600;28;20504;-72
2023/12/22 06:14:40;;;;;;;0.30;0.30;;;;;;;2.03;85.58;95485.16;5027865;28;20052;-73
2023/12/22 06:17:08;;;;;;;0.20;0.20;;;;;;;1.99;85.38;95491.78;5019724;28;20519;-73
2023/12/22 06:19:36;;;;;;;0.30;0.30;;;;;;;1.98;85.31;95469.13;5034744;28;20439;-73
2023/12/22 06:22:04;;;;;;;0.40;0.40;;;;;;;1.98;85.09;95464.69;5030535;28;20440;-74
2023/12/22 06:24:33;;;;;;;0.20;0.20;;;;;;;2.01;85.76;95471.38;5023091;28;20042;-73
2023/12/22 06:27:00;;;;;;;0.47;0.47;;;;;;;2.01;85.44;95450.34;5028610;28;20046;-74
2023/12/22 06:29:28;;;;;;;0.22;0.22;;;;;;;2.01;85.50;95460.84;5033288;28;20091;-73
2023/12/22 06:31:58;;;;;;;0.20;0.20;;;;;;;2.03;85.30;95469.38;5032760;28;20049;-74
2023/12/22 06:34:26;;;;;;;0.43;0.43;;;;;;;2.05;85.47;95456.84;5030663;28;20073;-74
2023/12/22 06:36:53;;;;;;;0.25;0.25;;;;;;;2.06;85.78;95459.28;5026816;28;20041;-74
2023/12/22 06:39:21;;;;;;;0.30;0.30;;;;;;;2.07;85.76;95453.00;5037131;28;20076;-74
2023/12/22 06:41:51;;;;;;;0.32;0.32;;;;;;;2.05;86.02;95441.06;5021806;28;20512;-75
2023/12/22 06:44:18;;;;;;;0.20;0.20;;;;;;;2.05;86.30;95455.03;5028811;28;20037;-74
2023/12/22 06:46:46;;;;;;;0.35;0.35;;;;;;;2.04;85.85;95450.75;5027155;28;20116;-73
2023/12/22 06:49:14;;;;;;;0.30;0.30;;;;;;;2.10;84.87;95457.88;5031595;28;20045;-74
2023/12/22 06:51:42;;;;;;;0.40;0.40;;;;;;;2.15;84.49;95446.78;5029503;28;20062;-73
2023/12/22 06:54:10;;;;;;;0.20;0.20;;;;;;;2.12;84.13;95452.41;5031304;28;20128;-74
2023/12/22 06:56:40;;;;;;;0.40;0.40;;;;;;;2.19;83.73;95471.66;5029172;28;20087;-73
2023/12/22 06:59:11;;;;;;;0.40;0.40;;;;;;;2.07;84.65;95463.53;5026721;28;20139;-72
2023/12/22 07:01:41;;;;;;;0.20;0.20;;;;;;;2.07;85.34;95476.69;5023925;28;20050;-73
2023/12/22 07:04:08;;;;;;;0.20;0.20;;;;;;;2.02;85.71;95465.09;5024285;28;20180;-73
2023/12/22 07:06:36;;;;;;;0.32;0.32;;;;;;;2.03;86.16;95477.25;5026348;28;20064;-73
2023/12/22 07:09:29;;;;;;;0.28;0.28;;;;;;;1.97;86.55;95475.41;5007934;28;20059;-72
2023/12/22 07:11:56;;;;;;;0.30;0.30;;;;;;;1.97;87.21;95470.16;5029350;28;20041;-72
2023/12/22 07:14:25;;;;;;;0.40;0.40;;;;;;;1.99;87.05;95460.22;5001545;28;20133;-73
2023/12/22 07:16:53;;;;;;;0.30;0.30;;;;;;;1.97;86.94;95463.06;5025625;28;20042;-72
2023/12/22 07:19:21;;;;;;;0.45;0.45;;;;;;;2.01;86.50;95485.34;5011514;28;20050;-72
2023/12/22 07:21:49;;;;;;;0.35;0.35;;;;;;;1.98;86.76;95480.44;5023901;28;20037;-73
2023/12/22 07:24:17;;;;;;;0.45;0.45;;;;;;;2.02;85.60;95500.13;5027582;28;20042;-73
2023/12/22 07:26:45;;;;;;;0.30;0.30;;;;;;;2.24;83.14;95490.31;5026370;28;20073;-72
2023/12/22 07:29:12;;;;;;;0.30;0.22;;;;;;;2.38;81.84;95514.91;5032136;28;20409;-72
2023/12/22 07:31:42;;;;;;;0.20;0.20;;;;;;;2.55;80.08;95530.16;5029796;28;20049;-72
2023/12/22 07:34:12;;;;;;;0.30;0.30;;;;;;;2.62;79.68;95522.28;5023912;28;20076;-72
2023/12/22 07:36:40;;;;;;;0.40;0.40;;;;;;;2.64;78.65;95522.06;5020487;28;20476;-73
2023/12/22 07:39:18;;;;;;;0.30;0.30;;;;;;;2.66;78.77;95518.25;5028882;28;20052;-73
2023/12/22 07:41:46;;;;;;;0.20;0.20;;;;;;;2.78;78.33;95535.13;5030980;28;20113;-73
2023/12/22 07:44:14;;;;;;;0.30;0.30;;;;;;;2.76;78.52;95533.69;5034607;28;20113;-72
2023/12/22 07:46:42;;;;;;;0.30;0.30;;;;;;;2.75;78.75;95548.66;5019247;28;20042;-75
2023/12/22 07:49:10;;;;;;;0.32;0.32;;;;;;;2.84;78.81;95544.84;5020878;28;20501;-74
2023/12/22 07:51:37;;;;;;;0.30;0.30;;;;;;;2.82;79.52;95556.56;5005233;28;20526;-72
2023/12/22 07:54:08;;;;;;;0.25;0.25;;;;;;;2.79;79.64;95543.81;5023274;28;20064;-72
2023/12/22 07:56:36;;;;;;;0.28;0.28;;;;;;;2.77;79.78;95548.47;5022772;28;20045;-72
2023/12/22 07:59:03;;;;;;;0.30;0.30;;;;;;;2.74;80.14;95546.22;5029857;28;20128;-72
2023/12/22 08:01:50;;;;;;;0.30;0.30;;;;;;;2.67;80.68;95545.41;5019113;28;20277;-72
2023/12/22 08:04:18;;;;;;;0.32;0.32;;;;;;;2.72;80.44;95556.94;5029001;28;20080;-74
2023/12/22 08:06:46;;;;;;;0.38;0.38;;;;;;;2.74;80.26;95556.75;5027729;28;20091;-72
2023/12/22 08:09:14;;;;;;;0.43;0.43;;;;;;;2.68;80.65;95579.44;5017636;28;20077;-73
2023/12/22 08:11:41;;;;;;;0.30;0.30;;;;;;;2.66;79.77;95588.53;5008130;28;20065;-72
2023/12/22 08:14:09;;;;;;;0.25;0.25;;;;;;;2.60;80.87;95594.59;5005387;28;20064;-73
2023/12/22 08:16:37;;;;;;;0.25;0.25;;;;;;;2.50;82.47;95603.63;5025821;28;20079;-76
2023/12/22 08:19:06;;;;;;;0.45;0.45;;;;;;;2.38;83.52;95601.75;5000040;28;20056;-72
2023/12/22 08:21:34;;;;;;;0.20;0.20;;;;;;;2.33;84.42;95594.41;5028812;28;20056;-75
2023/12/22 08:24:12;;;;;;;0.28;0.28;;;;;;;2.31;84.42;95591.16;5028509;28;20488;-73
2023/12/22 08:26:48;;;;;;;0.30;0.30;;;;;;;2.27;84.72;95597.84;5023687;28;20033;-75
2023/12/22 08:29:17;;;;;;;0.30;0.30;;;;;;;2.39;82.83;95603.38;5022939;28;20051;-75
2023/12/22 08:31:44;;;;;;;0.20;0.20;;;;;;;2.42;82.56;95598.53;5022119;28;20053;-73
2023/12/22 08:34:13;;;;;;;0.20;0.20;;;;;;;2.43;81.44;95586.19;5004094;28;20056;-74
2023/12/22 08:36:41;;;;;;;0.20;0.20;;;;;;;2.51;80.56;95591.28;5029913;28;20049;-73
2023/12/22 08:39:10;;;;;;;0.30;0.30;;;;;;;2.64;79.48;95582.63;5029326;28;20053;-73
2023/12/22 08:41:38;;;;;;;0.20;0.20;;;;;;;2.64;79.48;95551.84;5027237;28;20046;-73
2023/12/22 08:44:06;;;;;;;0.70;0.70;;;;;;;2.67;79.02;95571.72;5032717;28;20042;-74
2023/12/22 08:46:35;;;;;;;0.30;0.30;;;;;;;2.83;77.16;95563.47;5002832;28;20561;-73
2023/12/22 08:49:03;;;;;;;0.30;0.30;;;;;;;2.86;76.49;95571.81;5027963;28;20488;-74
2023/12/22 08:51:33;;;;;;;0.40;0.40;;;;;;;2.99;75.62;95554.44;4999199;28;20112;-73
2023/12/22 08:54:01;;;;;;;0.30;0.30;;;;;;;3.03;75.02;95574.91;5031986;28;20037;-73
2023/12/22 08:56:29;;;;;;;0.40;0.40;;;;;;;3.15;73.35;95562.78;5026120;28;20060;-73
2023/12/22 08:58:59;;;;;;;0.47;0.47;;;;;;;3.29;72.08;95577.63;5027382;28;20045;-73
2023/12/22 09:01:26;;;;;;;0.30;0.30;;;;;;;3.42;70.30;95568.94;5023623;28;20459;-76
2023/12/22 09:03:54;;;;;;;0.20;0.20;;;;;;;3.60;68.40;95589.44;5027274;28;20045;-73
2023/12/22 09:06:23;;;;;;;0.30;0.30;;;;;;;3.59;68.97;95612.34;5006570;28;20511;-74
2023/12/22 09:08:52;;;;;;;0.30;0.30;;;;;;;3.63;68.02;95607.50;5002855;28;20058;-73
2023/12/22 09:11:21;;;;;;;0.40;0.40;;;;;;;3.68;68.44;95612.97;5023824;28;20076;-73
2023/12/22 09:13:49;;;;;;;0.40;0.40;;;;;;;3.73;67.46;95610.56;5023622;28;20397;-73
2023/12/22 09:16:21;;;;;;;0.30;0.30;;;;;;;3.81;66.94;95602.44;5020475;28;20056;-74
2023/12/22 09:18:51;;;;;;;0.30;0.30;;;;;;;3.83;67.41;95615.44;5019279;28;20485;-74
2023/12/22 09:21:19;;;;;;;0.30;0.30;;;;;;;3.82;67.82;95612.00;5020536;28;20497;-74
2023/12/22 09:23:47;;;;;;;0.50;0.40;;;;;;;3.80;67.51;95614.00;5028271;28;20042;-74
2023/12/22 09:26:17;;;;;;;0.30;0.30;;;;;;;3.86;66.32;95605.28;5019800;28;20386;-74
2023/12/22 09:28:46;;;;;;;0.40;0.40;;;;;;;3.91;66.91;95626.59;5025761;28;20120;-73
2023/12/22 09:31:14;;;;;;;0.50;0.50;;;;;;;3.98;66.90;95626.59;5026122;28;20046;-73
2023/12/22 09:33:42;;;;;;;0.40;0.40;;;;;;;4.00;66.34;95664.16;5023927;28;20046;-73
2023/12/22 09:36:10;;;;;;;0.50;0.50;;;;;;;4.01;65.99;95661.31;5024125;28;20076;-73
2023/12/22 09:38:38;;;;;;;0.38;0.38;;;;;;;4.03;66.07;95654.03;5027707;28;20045;-73
2023/12/22 09:41:05;;;;;;;0.32;0.32;;;;;;;4.09;65.56;95668.22;5029938;28;20489;-73
2023/12/22 09:43:36;;;;;;;0.40;0.40;;;;;;;4.22;64.61;95675.34;5022353;28;20057;-73
2023/12/22 09:46:05;;;;;;;0.40;0.40;;;;;;;4.21;64.62;95653.41;5026786;28;20045;-73
2023/12/22 09:48:35;;;;;;;0.40;0.40;;;;;;;4.25;64.41;95657.28;5028238;28;20129;-73
2023/12/22 09:51:04;;;;;;;0.30;0.30;;;;;;;4.23;65.25;95661.13;5007231;28;20539;-73
2023/12/22 09:53:32;;;;;;;0.30;0.30;;;;;;;4.29;64.44;95663.78;5023893;28;20541;-73
2023/12/22 09:56:00;;;;;;;0.20;0.20;;;;;;;4.32;63.95;95670.47;5034766;28;20129;-73
2023/12/22 09:58:28;;;;;;;0.40;0.40;;;;;;;4.32;64.02;95654.63;5023417;28;20089;-74
2023/12/22 10:00:57;;;;;;;0.40;0.40;;;;;;;4.32;63.05;95668.66;5027321;28;20049;-73
2023/12/22 10:03:25;;;;;;;0.45;0.45;;;;;;;4.35;64.11;95670.09;5027957;28;20473;-76
2023/12/22 10:05:53;;;;;;;0.20;0.20;;;;;;;4.35;63.55;95656.88;5035789;28;20084;-73
2023/12/22 10:08:21;;;;;;;0.40;0.40;;;;;;;4.34;63.46;95679.84;5016389;28;20091;-73
2023/12/22 10:10:52;;;;;;;0.20;0.20;;;;;;;4.38;62.85;95688.13;5032027;28;20044;-73
2023/12/22 10:13:20;;;;;;;0.43;0.43;;;;;;;4.41;62.96;95671.91;5033188;28;20563;-73
2023/12/22 10:15:48;;;;;;;0.65;0.65;;;;;;;4.43;63.44;95685.72;5007438;28;20045;-73
2023/12/22 10:18:18;;;;;;;0.28;0.28;;;;;;;4.42;63.10;95684.91;5005436;28;20143;-73
2023/12/22 10:20:45;;;;;;;0.20;0.20;;;;;;;4.42;63.04;95687.53;5008621;28;20046;-73
2023/12/22 10:23:13;;;;;;;0.40;0.40;;;;;;;4.46;62.85;95687.16;5027691;28;20048;-73
2023/12/22 10:25:43;;;;;;;0.40;0.35;;;;;;;4.52;62.02;95679.22;5031253;28;20034;-73
2023/12/22 10:28:13;;;;;;;0.30;0.30;;;;;;;4.52;62.13;95673.09;5032552;28;20049;-72
2023/12/22 10:30:41;;;;;;;0.30;0.30;;;;;;;4.54;61.74;95671.91;5021029;28;20080;-73
2023/12/22 10:33:08;;;;;;;0.38;0.38;;;;;;;4.51;62.23;95674.94;5020915;28;20295;-73
2023/12/22 10:35:38;;;;;;;0.20;0.20;;;;;;;4.52;62.10;95675.75;5034228;28;20072;-73
2023/12/22 10:38:05;;;;;;;0.40;0.40;;;;;;;4.54;62.14;95687.75;5023648;28;20138;-76
2023/12/22 10:40:33;;;;;;;0.40;0.40;;;;;;;4.60;61.19;95670.25;5022453;28;20053;-73
2023/12/22 10:43:01;;;;;;;0.40;0.40;;;;;;;4.57;60.95;95666.19;5018054;28;20047;-74
2023/12/22 10:45:30;;;;;;;0.38;0.38;;;;;;;4.53;61.23;95680.03;5024302;28;20113;-74
2023/12/22 10:47:59;;;;;;;0.40;0.40;;;;;;;4.52;61.89;95681.84;5018729;28;20050;-74
2023/12/22 10:50:28;;;;;;;0.40;0.40;;;;;;;4.56;61.61;95675.16;5030805;28;20056;-73
2023/12/22 10:52:57;;;;;;;0.25;0.25;;;;;;;4.58;61.38;95662.53;5007217;28;20042;-73
2023/12/22 10:55:25;;;;;;;0.20;0.20;;;;;;;4.56;61.69;95656.66;5032342;28;20093;-74
2023/12/22 10:57:53;;;;;;;0.35;0.35;;;;;;;4.63;61.25;95670.66;5027983;28;20041;-73
2023/12/22 11:00:22;;;;;;;0.15;0.15;;;;;;;4.59;61.27;95666.78;5024830;28;20051;-74
2023/12/22 11:02:50;;;;;;;0.35;0.35;;;;;;;4.58;61.15;95651.97;5035550;28;20121;-73
2023/12/22 11:05:19;;;;;;;0.30;0.30;;;;;;;4.56;62.29;95656.66;5021288;28;20527;-73
2023/12/22 11:07:50;;;;;;;0.30;0.30;;;;;;;4.54;62.67;95663.97;5005379;28;20056;-74
2023/12/22 11:10:22;;;;;;;0.35;0.35;;;;;;;4.48;63.10;95663.97;5026992;28;20053;-74
2023/12/22 11:12:50;;;;;;;0.20;0.20;;;;;;;4.45;63.63;95672.31;5032999;28;20045;-72
2023/12/22 11:15:19;;;;;;;0.25;0.25;;;;;;;4.36;65.46;95679.63;5030834;28;20053;-76
2023/12/22 11:17:47;;;;;;;0.20;0.20;;;;;;;4.16;67.84;95662.94;5018729;28;20455;-72
2023/12/22 11:20:16;;;;;;;0.20;0.20;;;;;;;4.03;68.74;95667.22;5023763;28;20042;-71
2023/12/22 11:22:45;;;;;;;0.20;0.20;;;;;;;4.08;69.31;95661.31;5027016;28;20042;-73
2023/12/22 11:25:15;;;;;;;0.30;0.30;;;;;;;4.06;69.43;95650.97;5026751;28;20451;-72
2023/12/22 11:27:47;;;;;;;0.35;0.35;;;;;;;3.94;70.34;95646.50;5022975;28;20048;-76
2023/12/22 11:30:17;;;;;;;0.30;0.30;;;;;;;3.94;70.79;95642.03;5027057;28;20539;-75
2023/12/22 11:32:45;;;;;;;0.30;0.30;;;;;;;3.88;70.60;95640.19;5020502;28;20052;-75
2023/12/22 11:35:13;;;;;;;0.50;0.50;;;;;;;3.86;70.96;95646.69;5024976;28;20493;-76
2023/12/22 11:37:43;;;;;;;0.30;0.30;;;;;;;3.80;71.51;95648.31;5022420;28;20046;-73
2023/12/22 11:40:11;;;;;;;0.35;0.35;;;;;;;3.84;71.40;95664.56;5022688;28;20449;-76
2023/12/22 11:42:43;;;;;;;0.30;0.30;;;;;;;3.78;72.06;95647.69;5026990;28;20041;-75
2023/12/22 11:45:16;;;;;;;0.30;0.30;;;;;;;3.76;72.01;95631.25;5031406;28;20045;-75
2023/12/22 11:47:44;;;;;;;0.40;0.40;;;;;;;3.79;71.48;95628.22;5030229;28;20052;-73